createdAt,value
2023-04-04T00:02:00.753Z,8.75
2023-04-04T00:04:25.441Z,7.45
2023-04-04T00:06:54.007Z,9.32
2023-04-04T00:09:18.511Z,8.85
2023-04-04T00:11:43.297Z,9.70
2023-04-04T00:14:08.206Z,6.90
2023-04-04T00:16:32.944Z,9.30
2023-04-04T00:18:57.391Z,8.60
2023-04-04T00:21:21.936Z,8.85
2023-04-04T00:23:48.204Z,8.27
2023-04-04T00:26:12.711Z,8.50
2023-04-04T00:28:38.577Z,6.00
2023-04-04T00:31:03.624Z,7.97
2023-04-04T00:33:28.210Z,8.13
2023-04-04T00:35:53.332Z,8.70
2023-04-04T00:38:17.780Z,13.15
2023-04-04T00:40:45.066Z,4.40
2023-04-04T00:43:10.190Z,8.95
2023-04-04T00:45:36.174Z,5.95
2023-04-04T00:48:03.218Z,11.15
2023-04-04T00:50:27.776Z,7.18
2023-04-04T00:52:52.417Z,4.93
2023-04-04T00:55:17.673Z,9.15
2023-04-04T00:57:43.601Z,7.03
2023-04-04T01:00:09.843Z,26.90
2023-04-04T01:02:34.488Z,10.05
2023-04-04T01:04:59.088Z,7.72
2023-04-04T01:07:23.772Z,11.77
2023-04-04T01:09:49.412Z,11.23
2023-04-04T01:12:17.043Z,10.23
2023-04-04T01:14:43.515Z,10.32
2023-04-04T01:17:08.421Z,12.35
2023-04-04T01:19:37.543Z,9.55
2023-04-04T01:22:09.703Z,11.05
2023-04-04T01:24:36.431Z,10.55
2023-04-04T01:27:04.847Z,10.70
2023-04-04T01:29:32.694Z,10.27
2023-04-04T01:32:05.483Z,12.90
2023-04-04T01:34:38.379Z,10.05
2023-04-04T01:37:07.900Z,11.23
2023-04-04T01:39:37.145Z,17.98
2023-04-04T01:42:05.040Z,11.18
2023-04-04T01:44:31.022Z,13.50
2023-04-04T01:46:56.114Z,11.88
2023-04-04T01:49:21.485Z,12.80
2023-04-04T01:51:46.469Z,11.23
2023-04-04T01:54:13.317Z,11.77
2023-04-04T01:56:37.755Z,12.60
2023-04-04T01:59:03.803Z,12.27
2023-04-04T02:01:28.594Z,10.98
2023-04-04T02:03:53.840Z,15.80
2023-04-04T02:06:18.493Z,10.57
2023-04-04T02:08:43.365Z,7.22
2023-04-04T02:11:08.603Z,12.43
2023-04-04T02:13:33.220Z,8.52
2023-04-04T02:15:59.682Z,12.02
2023-04-04T02:18:24.729Z,12.07
2023-04-04T02:20:56.015Z,11.00
2023-04-04T02:23:20.813Z,9.25
2023-04-04T02:25:45.197Z,10.43
2023-04-04T02:28:11.603Z,9.20
2023-04-04T02:30:36.544Z,11.88
2023-04-04T02:33:03.755Z,8.68
2023-04-04T02:35:28.277Z,10.93
2023-04-04T02:37:53.325Z,13.95
2023-04-04T02:40:22.241Z,9.52
2023-04-04T02:42:47.021Z,10.88
2023-04-04T02:45:14.866Z,10.10
2023-04-04T02:47:51.864Z,12.48
2023-04-04T02:50:22.548Z,8.73
2023-04-04T02:52:54.973Z,10.35
2023-04-04T02:55:19.656Z,7.82
2023-04-04T02:57:44.150Z,11.32
2023-04-04T03:00:10.123Z,9.52
2023-04-04T03:02:35.143Z,8.57
2023-04-04T03:04:59.800Z,9.10
2023-04-04T03:07:26.146Z,6.53
2023-04-04T03:09:51.806Z,7.60
2023-04-04T03:12:16.219Z,10.43
2023-04-04T03:14:40.805Z,8.73
2023-04-04T03:17:05.589Z,9.23
2023-04-04T03:19:30.294Z,7.65
2023-04-04T03:21:54.664Z,5.75
2023-04-04T03:24:20.647Z,7.68
2023-04-04T03:26:45.078Z,6.03
2023-04-04T03:29:10.647Z,5.03
2023-04-04T03:31:35.629Z,9.15
2023-04-04T03:34:04.542Z,5.47
2023-04-04T03:36:29.048Z,8.18
2023-04-04T03:38:59.783Z,7.22
2023-04-04T03:41:25.755Z,7.18
2023-04-04T03:43:50.226Z,9.38
2023-04-04T03:46:15.824Z,7.30
2023-04-04T03:48:44.751Z,5.78
2023-04-04T03:51:09.595Z,8.80
2023-04-04T03:53:37.812Z,8.88
2023-04-04T03:56:02.314Z,8.32
2023-04-04T03:58:29.097Z,7.18
2023-04-04T04:00:53.819Z,7.45
2023-04-04T04:03:18.410Z,8.07
2023-04-04T04:05:44.137Z,8.82
2023-04-04T04:08:08.803Z,10.82
2023-04-04T04:10:37.370Z,7.90
2023-04-04T04:13:01.953Z,7.40
2023-04-04T04:15:28.216Z,8.13
2023-04-04T04:17:55.078Z,6.93
2023-04-04T04:20:22.309Z,5.70
2023-04-04T04:22:53.315Z,8.05
2023-04-04T04:25:18.692Z,6.20
2023-04-04T04:28:18.473Z,7.25
2023-04-04T04:30:46.318Z,8.05
2023-04-04T04:33:13.124Z,9.20
2023-04-04T04:35:50.227Z,8.27
2023-04-04T04:38:16.281Z,8.02
2023-04-04T04:40:41.227Z,10.50
2023-04-04T04:43:13.662Z,9.52
2023-04-04T04:45:38.316Z,10.27
2023-04-04T04:48:07.851Z,12.90
2023-04-04T04:50:39.827Z,8.48
2023-04-04T04:53:08.557Z,10.80
2023-04-04T04:55:33.206Z,9.23
2023-04-04T04:58:03.384Z,10.18
2023-04-04T05:00:29.027Z,9.90
2023-04-04T05:02:56.805Z,7.57
2023-04-04T05:05:44.293Z,7.32
2023-04-04T05:08:11.456Z,11.00
2023-04-04T05:10:44.488Z,11.70
2023-04-04T05:13:10.001Z,11.85
2023-04-04T05:15:40.326Z,12.63
2023-04-04T05:18:05.746Z,10.00
2023-04-04T05:20:30.561Z,10.30
2023-04-04T05:22:58.883Z,9.77
2023-04-04T05:25:31.225Z,9.45
2023-04-04T05:27:58.659Z,9.68
2023-04-04T05:30:23.959Z,14.13
2023-04-04T05:32:59.054Z,11.98
2023-04-04T05:35:26.633Z,13.52
2023-04-04T05:37:53.557Z,12.95
2023-04-04T05:40:20.678Z,11.73
2023-04-04T05:42:56.282Z,12.85
2023-04-04T05:45:24.383Z,13.63
2023-04-04T05:47:48.935Z,9.30
2023-04-04T05:50:13.430Z,12.90
2023-04-04T05:52:37.877Z,17.75
2023-04-04T05:55:05.056Z,11.18
2023-04-04T05:57:32.753Z,14.38
2023-04-04T05:59:58.677Z,14.60
2023-04-04T06:02:23.776Z,11.98
2023-04-04T06:04:55.270Z,9.20
2023-04-04T06:07:28.498Z,8.48
2023-04-04T06:09:53.040Z,10.20
2023-04-04T06:12:18.152Z,8.52
2023-04-04T06:14:45.096Z,9.82
2023-04-04T06:17:10.016Z,7.00
2023-04-04T06:19:34.601Z,10.32
2023-04-04T06:21:59.180Z,8.23
2023-04-04T06:24:24.464Z,8.55
2023-04-04T06:26:51.586Z,11.55
2023-04-04T06:29:21.565Z,9.20
2023-04-04T06:31:48.288Z,10.73
2023-04-04T06:34:30.650Z,12.30
2023-04-04T06:36:58.241Z,7.72
2023-04-04T06:39:27.517Z,6.88
2023-04-04T06:41:55.799Z,10.87
2023-04-04T06:44:24.795Z,9.43
2023-04-04T06:46:50.733Z,13.70
2023-04-04T06:49:15.719Z,8.38
2023-04-04T06:51:42.078Z,8.55
2023-04-04T06:54:06.541Z,7.40
2023-04-04T06:56:31.235Z,11.00
2023-04-04T06:58:55.693Z,10.88
2023-04-04T07:01:20.214Z,6.88
2023-04-04T07:03:46.195Z,4.28
2023-04-04T07:06:10.696Z,7.22
2023-04-04T07:08:36.898Z,5.75
2023-04-04T07:11:01.673Z,6.57
2023-04-04T07:13:26.692Z,7.47
2023-04-04T07:15:51.538Z,7.43
2023-04-04T07:18:16.068Z,7.05
2023-04-04T07:20:41.929Z,10.85
2023-04-04T07:23:06.557Z,6.72
2023-04-04T07:25:31.541Z,7.22
2023-04-04T07:28:09.682Z,8.18
2023-04-04T07:30:36.774Z,6.85
2023-04-04T07:33:02.503Z,6.30
2023-04-04T07:35:27.280Z,4.60
2023-04-04T07:37:53.725Z,7.95
2023-04-04T07:40:18.526Z,5.18
2023-04-04T07:42:46.243Z,6.00
2023-04-04T07:45:11.597Z,6.68
2023-04-04T07:47:36.219Z,4.38
2023-04-04T07:50:01.437Z,7.00
2023-04-04T07:52:27.600Z,5.57
2023-04-04T07:54:54.873Z,6.60
2023-04-04T07:57:19.463Z,3.88
2023-04-04T07:59:44.855Z,6.15
2023-04-04T08:02:12.603Z,6.20
2023-04-04T08:04:37.244Z,5.22
2023-04-04T08:07:01.729Z,3.63
2023-04-04T08:09:28.541Z,6.28
2023-04-04T08:11:54.353Z,6.20
2023-04-04T08:14:22.105Z,6.63
2023-04-04T08:16:46.585Z,4.65
2023-04-04T08:19:13.087Z,5.65
2023-04-04T08:21:37.673Z,6.80
2023-04-04T08:24:03.388Z,4.47
2023-04-04T08:26:27.740Z,4.05
2023-04-04T08:28:53.641Z,10.15
2023-04-04T08:31:19.082Z,5.13
2023-04-04T08:33:47.040Z,5.65
2023-04-04T08:36:12.406Z,3.72
2023-04-04T08:38:36.962Z,10.55
2023-04-04T08:41:01.652Z,5.43
2023-04-04T08:43:27.324Z,6.45
2023-04-04T08:45:55.851Z,7.28
2023-04-04T08:48:24.008Z,9.68
2023-04-04T08:50:49.614Z,9.82
2023-04-04T08:53:15.954Z,5.25
2023-04-04T08:55:40.464Z,4.88
2023-04-04T08:58:09.218Z,5.88
2023-04-04T09:00:34.167Z,4.88
2023-04-04T09:03:08.319Z,3.38
2023-04-04T09:05:34.154Z,5.20
2023-04-04T09:08:01.909Z,4.25
2023-04-04T09:10:28.089Z,4.47
2023-04-04T09:12:57.189Z,4.25
2023-04-04T09:15:27.537Z,3.30
2023-04-04T09:17:52.179Z,4.63
2023-04-04T09:20:41.555Z,4.63
2023-04-04T09:23:11.699Z,2.75
2023-04-04T09:25:37.306Z,5.95
2023-04-04T09:28:03.573Z,5.15
2023-04-04T09:30:27.980Z,5.80
2023-04-04T09:32:52.629Z,5.13
2023-04-04T09:35:17.467Z,7.65
2023-04-04T09:37:45.237Z,5.82
2023-04-04T09:40:11.733Z,4.03
2023-04-04T09:42:37.408Z,3.58
2023-04-04T09:45:02.365Z,6.03
2023-04-04T09:47:31.255Z,3.83
2023-04-04T09:49:59.397Z,5.10
2023-04-04T09:52:24.158Z,3.00
2023-04-04T09:54:59.129Z,4.18
2023-04-04T09:57:23.834Z,4.00
2023-04-04T09:59:48.505Z,4.53
2023-04-04T10:02:13.332Z,7.40
2023-04-04T10:04:40.106Z,4.32
2023-04-04T10:07:04.582Z,4.25
2023-04-04T10:09:30.385Z,3.17
2023-04-04T10:12:09.937Z,4.57
2023-04-04T10:14:36.744Z,3.85
2023-04-04T10:17:02.318Z,3.53
2023-04-04T10:19:26.907Z,4.45
2023-04-04T10:21:51.982Z,2.28
2023-04-04T10:24:18.245Z,4.15
2023-04-04T10:26:42.737Z,6.97
2023-04-04T10:29:08.721Z,2.97
2023-04-04T10:31:35.289Z,5.05
2023-04-04T10:34:11.475Z,6.57
2023-04-04T10:36:43.723Z,4.32
2023-04-04T10:39:15.076Z,5.28
2023-04-04T10:41:41.157Z,4.18
2023-04-04T10:44:20.240Z,7.35
2023-04-04T10:46:48.465Z,2.78
2023-04-04T10:49:13.374Z,6.20
2023-04-04T10:51:48.684Z,10.95
2023-04-04T10:54:17.905Z,5.28
2023-04-04T10:56:43.537Z,3.65
2023-04-04T10:59:13.754Z,6.43
2023-04-04T11:01:52.212Z,5.10
2023-04-04T11:04:21.978Z,4.80
2023-04-04T11:07:12.408Z,6.03
2023-04-04T11:09:53.989Z,5.43
2023-04-04T11:12:23.578Z,3.63
2023-04-04T11:15:11.016Z,10.40
2023-04-04T11:17:52.964Z,9.50
2023-04-04T11:20:21.601Z,5.57
2023-04-04T11:22:46.674Z,4.88
2023-04-04T11:25:50.812Z,5.45
2023-04-04T11:28:26.611Z,5.15
2023-04-04T11:31:25.920Z,4.75
2023-04-04T11:33:57.334Z,4.00
2023-04-04T11:36:46.062Z,5.80
2023-04-04T11:39:15.533Z,6.03
2023-04-04T11:41:50.085Z,5.10
2023-04-04T11:44:16.383Z,5.85
2023-04-04T11:46:42.292Z,4.75
2023-04-04T11:49:07.995Z,3.60
2023-04-04T11:51:33.988Z,6.25
2023-04-04T11:53:58.611Z,4.47
2023-04-04T11:56:23.942Z,3.53
2023-04-04T11:58:56.106Z,1.73
2023-04-04T12:01:26.497Z,3.88
2023-04-04T12:03:52.603Z,4.15
2023-04-04T12:06:18.204Z,5.65
2023-04-04T12:08:42.752Z,3.55
2023-04-04T12:11:09.516Z,4.47
2023-04-04T12:13:34.233Z,3.97
2023-04-04T12:15:58.934Z,3.15
2023-04-04T12:18:23.910Z,4.60
2023-04-04T12:20:52.886Z,3.15
2023-04-04T12:23:17.240Z,4.63
2023-04-04T12:25:44.369Z,2.08
2023-04-04T12:28:09.666Z,5.53
2023-04-04T12:30:34.737Z,4.45
2023-04-04T12:32:59.434Z,2.42
2023-04-04T12:35:23.953Z,3.13
2023-04-04T12:38:03.964Z,4.32
2023-04-04T12:40:33.383Z,5.07
2023-04-04T12:42:58.253Z,8.05
2023-04-04T12:45:24.224Z,4.35
2023-04-04T12:47:54.003Z,5.65
2023-04-04T12:50:24.281Z,6.65
2023-04-04T12:52:55.462Z,5.35
2023-04-04T12:55:26.428Z,6.45
2023-04-04T12:57:51.137Z,9.13
2023-04-04T13:00:16.856Z,6.95
2023-04-04T13:02:46.232Z,6.90
2023-04-04T13:05:11.378Z,10.27
2023-04-04T13:07:43.149Z,8.63
2023-04-04T13:10:09.177Z,6.78
2023-04-04T13:12:58.714Z,7.47
2023-04-04T13:15:23.848Z,7.82
2023-04-04T13:17:50.209Z,9.13
2023-04-04T13:20:16.221Z,8.07
2023-04-04T13:22:41.909Z,7.85
2023-04-04T13:25:08.257Z,7.38
2023-04-04T13:27:32.740Z,4.75
2023-04-04T13:29:58.783Z,8.40
2023-04-04T13:32:23.267Z,7.00
2023-04-04T13:34:47.629Z,7.32
2023-04-04T13:37:12.174Z,9.70
2023-04-04T13:39:36.802Z,10.85
2023-04-04T13:42:02.224Z,9.20
2023-04-04T13:44:27.296Z,7.90
2023-04-04T13:46:55.967Z,9.18
2023-04-04T13:49:20.535Z,10.30
2023-04-04T13:51:45.038Z,10.15
2023-04-04T13:54:09.760Z,9.63
2023-04-04T13:56:34.227Z,8.80
2023-04-04T13:58:58.702Z,9.13
2023-04-04T14:01:23.620Z,11.10
2023-04-04T14:03:50.547Z,11.55
2023-04-04T14:06:15.132Z,10.45
2023-04-04T14:08:40.105Z,9.70
2023-04-04T14:11:04.733Z,8.93
2023-04-04T14:13:29.983Z,17.17
2023-04-04T14:15:54.476Z,11.18
2023-04-04T14:18:18.913Z,11.60
2023-04-04T14:20:44.956Z,11.68
2023-04-04T14:23:09.629Z,11.75
2023-04-04T14:25:34.075Z,10.25
2023-04-04T14:27:58.561Z,13.90
2023-04-04T14:30:23.139Z,14.55
2023-04-04T14:32:47.645Z,10.45
2023-04-04T14:35:12.180Z,9.25
2023-04-04T14:37:38.434Z,9.48
2023-04-04T14:40:03.077Z,10.45
2023-04-04T14:42:27.665Z,8.73
2023-04-04T14:44:52.387Z,8.57
2023-04-04T14:47:19.468Z,10.93
2023-04-04T14:49:44.393Z,10.43
2023-04-04T14:52:08.989Z,7.82
2023-04-04T14:54:34.852Z,8.38
2023-04-04T14:57:02.487Z,10.63
2023-04-04T14:59:27.035Z,10.43
2023-04-04T15:01:51.832Z,6.93
2023-04-04T15:04:18.101Z,10.75
2023-04-04T15:06:43.416Z,5.95
2023-04-04T15:09:09.756Z,10.68
2023-04-04T15:11:36.481Z,10.07
2023-04-04T15:14:00.821Z,10.13
2023-04-04T15:16:26.290Z,9.57
2023-04-04T15:18:50.758Z,10.13
2023-04-04T15:21:15.273Z,10.82
2023-04-04T15:23:39.600Z,9.70
2023-04-04T15:26:04.155Z,7.82
2023-04-04T15:28:30.028Z,10.73
2023-04-04T15:30:54.733Z,7.53
2023-04-04T15:33:19.311Z,9.50
2023-04-04T15:35:44.002Z,11.18
2023-04-04T15:38:08.446Z,10.52
2023-04-04T15:40:32.798Z,11.38
2023-04-04T15:42:58.922Z,10.85
2023-04-04T15:45:24.982Z,8.35
2023-04-04T15:47:49.543Z,12.25
2023-04-04T15:50:14.082Z,16.20
2023-04-04T15:52:38.524Z,17.98
2023-04-04T15:55:03.015Z,20.23
2023-04-04T15:57:27.622Z,22.60
2023-04-04T15:59:52.618Z,15.10
2023-04-04T16:02:18.491Z,6.68
2023-04-04T16:04:43.014Z,8.70
2023-04-04T16:07:07.471Z,8.25
2023-04-04T16:09:32.210Z,5.63
2023-04-04T16:11:57.113Z,5.20
2023-04-04T16:14:21.746Z,6.70
2023-04-04T16:16:46.749Z,11.02
2023-04-04T16:19:15.156Z,8.00
2023-04-04T16:21:39.620Z,7.70
2023-04-04T16:24:05.324Z,9.20
2023-04-04T16:26:30.220Z,6.97
2023-04-04T16:28:54.944Z,9.07
2023-04-04T16:31:20.205Z,6.70
2023-04-04T16:33:44.790Z,9.63
2023-04-04T16:36:11.264Z,7.50
2023-04-04T16:38:36.335Z,8.75
2023-04-04T16:41:02.236Z,8.82
2023-04-04T16:43:27.320Z,7.15
2023-04-04T16:45:53.003Z,7.30
2023-04-04T16:48:18.279Z,8.60
2023-04-04T16:50:42.992Z,8.18
2023-04-04T16:53:09.956Z,9.18
2023-04-04T16:55:34.677Z,9.95
2023-04-04T16:57:59.885Z,11.13
2023-04-04T17:00:24.880Z,9.60
2023-04-04T17:02:49.619Z,8.90
2023-04-04T17:05:14.840Z,9.15
2023-04-04T17:07:39.403Z,9.13
2023-04-04T17:10:09.597Z,9.07
2023-04-04T17:12:34.483Z,10.43
2023-04-04T17:14:59.164Z,7.45
2023-04-04T17:17:24.161Z,10.30
2023-04-04T17:19:48.828Z,8.70
2023-04-04T17:22:13.615Z,7.63
2023-04-04T17:24:38.676Z,12.27
2023-04-04T17:27:05.058Z,13.85
2023-04-04T17:29:29.772Z,12.07
2023-04-04T17:31:55.703Z,13.00
2023-04-04T17:34:20.417Z,12.45
2023-04-04T17:36:45.218Z,11.77
2023-04-04T17:39:10.069Z,10.35
2023-04-04T17:41:35.574Z,11.80
2023-04-04T17:44:02.060Z,14.32
2023-04-04T17:46:27.288Z,12.23
2023-04-04T17:48:52.117Z,22.60
2023-04-04T17:51:17.961Z,51.63
2023-04-04T17:53:42.487Z,21.00
2023-04-04T17:56:07.080Z,14.52
2023-04-04T17:58:31.668Z,14.93
2023-04-04T18:00:58.159Z,11.20
2023-04-04T18:03:23.103Z,17.77
2023-04-04T18:05:48.659Z,20.15
2023-04-04T18:08:15.054Z,12.32
2023-04-04T18:10:39.824Z,11.88
2023-04-04T18:13:04.491Z,11.48
2023-04-04T18:15:29.586Z,9.63
2023-04-04T18:17:55.744Z,10.52
2023-04-04T18:20:34.149Z,13.02
2023-04-04T18:23:05.425Z,13.13
2023-04-04T18:25:30.980Z,10.38
2023-04-04T18:27:55.455Z,12.60
2023-04-04T18:30:19.898Z,11.68
2023-04-04T18:32:44.870Z,10.50
2023-04-04T18:35:12.749Z,13.75
2023-04-04T18:37:37.385Z,12.95
2023-04-04T18:40:03.237Z,14.13
2023-04-04T18:42:27.915Z,15.70
2023-04-04T18:44:53.872Z,15.38
2023-04-04T18:47:18.319Z,14.30
2023-04-04T18:49:42.953Z,17.25
2023-04-04T18:52:09.905Z,19.70
2023-04-04T18:54:34.435Z,13.18
2023-04-04T18:56:59.184Z,14.40
2023-04-04T18:59:24.379Z,13.73
2023-04-04T19:01:49.072Z,13.23
2023-04-04T19:04:15.235Z,13.20
2023-04-04T19:06:41.511Z,11.02
2023-04-04T19:09:09.881Z,11.07
2023-04-04T19:11:34.470Z,10.85
2023-04-04T19:13:58.955Z,10.95
2023-04-04T19:16:24.268Z,12.70
2023-04-04T19:18:48.929Z,12.77
2023-04-04T19:21:13.553Z,9.77
2023-04-04T19:23:38.279Z,11.00
2023-04-04T19:26:04.374Z,11.30
2023-04-04T19:28:28.762Z,10.70
2023-04-04T19:30:54.869Z,9.68
2023-04-04T19:33:21.925Z,10.18
2023-04-04T19:35:59.075Z,9.65
2023-04-04T19:38:26.159Z,9.25
2023-04-04T19:40:52.562Z,9.15
2023-04-04T19:43:22.002Z,9.50
2023-04-04T19:45:50.598Z,7.78
2023-04-04T19:48:40.936Z,9.93
2023-04-04T19:51:08.743Z,9.98
2023-04-04T19:53:34.013Z,10.07
2023-04-04T19:55:58.920Z,11.40
2023-04-04T19:58:25.213Z,10.20
2023-04-04T20:00:49.885Z,12.70
2023-04-04T20:03:30.484Z,11.50
2023-04-04T20:05:58.569Z,14.77
2023-04-04T20:08:23.722Z,13.20
2023-04-04T20:10:49.735Z,13.65
2023-04-04T20:13:15.348Z,13.70
2023-04-04T20:16:01.630Z,14.50
2023-04-04T20:18:28.172Z,14.27
2023-04-04T20:20:59.716Z,16.48
2023-04-04T20:23:26.224Z,14.32
2023-04-04T20:25:52.107Z,13.82
2023-04-04T20:28:24.182Z,15.73
2023-04-04T20:30:51.574Z,14.93
2023-04-04T20:35:47.064Z,15.35
2023-04-04T20:38:12.534Z,18.65
2023-04-04T20:40:41.657Z,17.75
2023-04-04T20:43:08.546Z,17.38
2023-04-04T20:45:45.010Z,18.38
2023-04-04T20:48:09.962Z,16.92
2023-04-04T20:50:47.432Z,17.70
2023-04-04T20:53:20.884Z,18.73
2023-04-04T20:55:45.713Z,18.25
2023-04-04T20:58:11.914Z,22.10
2023-04-04T21:00:41.734Z,17.45
2023-04-04T21:03:12.195Z,17.25
2023-04-04T21:05:38.622Z,19.73
2023-04-04T21:08:27.086Z,21.05
2023-04-04T21:10:53.720Z,20.33
2023-04-04T21:13:28.003Z,24.85
2023-04-04T21:15:52.779Z,29.42
2023-04-04T21:18:25.054Z,27.25
2023-04-04T21:21:10.092Z,31.75
2023-04-04T21:23:50.006Z,30.85
2023-04-04T21:26:32.549Z,23.92
2023-04-04T21:29:00.127Z,23.40
2023-04-04T21:31:39.637Z,21.27
2023-04-04T21:34:10.389Z,20.60
2023-04-04T21:36:35.045Z,18.90
2023-04-04T21:39:02.828Z,22.35
2023-04-04T21:41:28.819Z,17.67
2023-04-04T21:43:54.077Z,15.60
2023-04-04T21:46:18.572Z,16.20
2023-04-04T21:48:43.202Z,19.92
2023-04-04T21:51:08.705Z,18.13
2023-04-04T21:53:33.667Z,16.30
2023-04-04T21:55:59.813Z,18.83
2023-04-04T21:58:24.603Z,17.00
2023-04-04T22:00:49.375Z,16.90
2023-04-04T22:03:13.942Z,18.75
2023-04-04T22:05:39.515Z,20.80
2023-04-04T22:08:04.100Z,19.98
2023-04-04T22:10:33.122Z,18.05
2023-04-04T22:13:00.234Z,20.80
2023-04-04T22:15:29.700Z,16.92
2023-04-04T22:17:55.030Z,18.58
2023-04-04T22:20:20.001Z,17.60
2023-04-04T22:22:46.010Z,17.98
2023-04-04T22:25:14.565Z,17.85
2023-04-04T22:27:39.681Z,15.82
2023-04-04T22:30:06.573Z,15.25
2023-04-04T22:32:33.763Z,18.30
2023-04-04T22:34:58.645Z,14.90
2023-04-04T22:37:27.071Z,15.70
2023-04-04T22:39:51.706Z,15.45
2023-04-04T22:42:16.335Z,14.65
2023-04-04T22:44:40.833Z,13.90
2023-04-04T22:47:07.932Z,14.18
2023-04-04T22:49:32.748Z,15.65
2023-04-04T22:51:57.359Z,14.43
2023-04-04T22:54:22.057Z,15.10
2023-04-04T22:56:47.737Z,13.85
2023-04-04T22:59:12.306Z,14.48
2023-04-04T23:01:36.878Z,15.73
2023-04-04T23:04:02.785Z,14.60
2023-04-04T23:06:27.739Z,13.20
2023-04-04T23:08:52.196Z,15.63
2023-04-04T23:11:18.543Z,14.30
2023-04-04T23:13:43.427Z,14.77
2023-04-04T23:16:08.206Z,12.40
2023-04-04T23:18:32.729Z,11.55
2023-04-04T23:20:58.632Z,12.80
2023-04-04T23:23:23.068Z,12.63
2023-04-04T23:25:47.564Z,12.50
2023-04-04T23:28:12.111Z,10.65
2023-04-04T23:30:37.007Z,12.57
2023-04-04T23:33:01.476Z,11.15
2023-04-04T23:35:26.341Z,10.77
2023-04-04T23:37:52.783Z,11.43
2023-04-04T23:40:17.633Z,10.23
2023-04-04T23:42:42.260Z,11.10
2023-04-04T23:45:07.689Z,8.98
2023-04-04T23:47:32.311Z,8.98
2023-04-04T23:49:57.049Z,7.38
2023-04-04T23:52:21.500Z,8.77
2023-04-04T23:54:47.460Z,6.97
2023-04-04T23:57:11.920Z,8.35
2023-04-04T23:59:36.406Z,6.78
